Time;durP1;ratioP1;P1;durP2;ratioP2;P2;SDS_P1;SDS_P2;PMS_P1;PMS_P2;Temp;Humidity;BMP_temperature;BMP_pressure;BME280_temperature;BME280_humidity;BME280_pressure;Samples;Min_cycle;Max_cycle;Signal;HPM_P1;HPM_P2
2022/05/29 02:28:13;;;;;;;0.20;0.20;;;;;;;17.01;100.00;92030.91;5034760;27;20505;-86
2022/05/29 02:31:15;;;;;;;0.20;0.20;;;;;;;16.99;100.00;92037.84;5035617;28;20550;-89
2022/05/29 02:33:52;;;;;;;0.30;0.30;;;;;;;16.72;100.00;92024.66;5033833;28;20475;-84
2022/05/29 02:36:32;;;;;;;0.20;0.20;;;;;;;16.44;100.00;91991.00;5033426;28;20212;-86
2022/05/29 02:39:36;;;;;;;0.30;0.30;;;;;;;16.35;100.00;92014.59;5034264;28;20534;-89
2022/05/29 02:42:30;;;;;;;0.28;0.28;;;;;;;15.94;100.00;92001.56;5034019;28;20600;-89
2022/05/29 02:45:34;;;;;;;0.30;0.30;;;;;;;15.02;100.00;91932.66;5034318;28;20523;-90
2022/05/29 02:48:32;;;;;;;0.30;0.30;;;;;;;15.54;100.00;92006.16;5025277;27;20296;-90
2022/05/29 03:25:55;;;;;;;0.20;0.20;;;;;;;14.86;100.00;91887.16;4956038;28;20579;-88
2022/05/29 03:44:50;;;;;;;0.40;0.40;;;;;;;15.20;100.00;91955.09;4738625;29;20620;-88
2022/05/29 03:47:25;;;;;;;0.20;0.20;;;;;;;14.76;100.00;91874.25;4815152;29;20601;-87
2022/05/29 03:50:26;;;;;;;0.20;0.20;;;;;;;15.10;100.00;91971.88;4921288;28;20669;-88
2022/05/29 03:53:53;;;;;;;0.20;0.20;;;;;;;15.38;100.00;92020.88;4976723;28;20705;-88
2022/05/29 04:03:05;;;;;;;2.25;2.15;;;;;;;15.58;100.00;91993.09;4975663;28;20238;-88
2022/05/29 04:05:39;;;;;;;0.20;0.20;;;;;;;15.29;100.00;91956.16;4960211;28;20589;-88
2022/05/29 04:14:30;;;;;;;2.05;1.90;;;;;;;15.79;100.00;91979.72;4999640;28;20680;-87
2022/05/29 04:17:00;;;;;;;0.20;0.20;;;;;;;15.06;100.00;91853.47;5016294;28;20554;-85
2022/05/29 04:20:00;;;;;;;0.28;0.28;;;;;;;15.23;100.00;91870.06;5024005;28;20574;-87
2022/05/29 04:22:32;;;;;;;0.20;0.20;;;;;;;15.67;100.00;91931.31;5022450;28;20482;-85
2022/05/29 04:24:59;;;;;;;0.20;0.20;;;;;;;15.81;100.00;91954.97;5020991;28;20531;-84
2022/05/29 04:27:29;;;;;;;0.22;0.22;;;;;;;16.09;100.00;91959.66;5016273;28;20557;-85
2022/05/29 04:29:56;;;;;;;0.20;0.20;;;;;;;15.84;100.00;91898.69;5017190;28;20457;-84
2022/05/29 04:35:11;;;;;;;0.20;0.20;;;;;;;16.16;100.00;91937.91;5019609;28;20578;-84
2022/05/29 04:37:40;;;;;;;0.20;0.20;;;;;;;16.27;100.00;91939.66;5019189;28;20584;-83
2022/05/29 04:40:14;;;;;;;0.20;0.20;;;;;;;16.39;100.00;91947.16;5019151;28;20646;-82
2022/05/29 04:42:41;;;;;;;0.20;0.20;;;;;;;16.35;100.00;91932.22;5021649;28;20606;-82
2022/05/29 04:45:09;;;;;;;0.20;0.20;;;;;;;16.31;100.00;91908.69;5018583;28;20586;-82
2022/05/29 04:47:36;;;;;;;0.20;0.20;;;;;;;16.30;100.00;91901.97;5018835;28;20305;-84
2022/05/29 04:50:04;;;;;;;0.20;0.20;;;;;;;16.62;100.00;91957.41;5018003;28;20202;-82
2022/05/29 04:52:31;;;;;;;0.30;0.30;;;;;;;16.69;100.00;91948.34;5020562;28;20586;-81
2022/05/29 04:55:01;;;;;;;0.35;0.35;;;;;;;16.32;100.00;91864.44;5016431;28;20582;-84
2022/05/29 04:57:28;;;;;;;0.20;0.20;;;;;;;16.46;100.00;91882.03;5019673;28;20540;-81
2022/05/29 04:59:57;;;;;;;0.20;0.20;;;;;;;16.37;100.00;91920.19;5020103;28;20321;-85
2022/05/29 05:02:31;;;;;;;0.20;0.20;;;;;;;16.41;100.00;91878.22;5022384;28;20287;-83
2022/05/29 05:04:58;;;;;;;0.20;0.20;;;;;;;16.71;100.00;91916.69;5018492;28;20201;-85
2022/05/29 05:07:32;;;;;;;0.20;0.20;;;;;;;16.20;100.00;91857.72;5018799;28;20310;-86
2022/05/29 05:10:01;;;;;;;0.45;0.45;;;;;;;16.87;100.00;91946.94;5021428;28;20205;-84
2022/05/29 05:12:28;;;;;;;0.52;0.52;;;;;;;16.75;100.00;91922.38;5018466;28;20516;-84
2022/05/29 05:14:55;;;;;;;0.30;0.30;;;;;;;16.42;100.00;91869.66;5020317;28;20577;-82
2022/05/29 05:17:22;;;;;;;0.20;0.20;;;;;;;16.81;100.00;91901.50;5021135;28;20561;-83
2022/05/29 05:19:49;;;;;;;0.30;0.30;;;;;;;17.36;100.00;91951.56;5019524;28;20627;-80
2022/05/29 05:22:17;;;;;;;0.30;0.30;;;;;;;16.98;100.00;91885.66;5016926;28;20530;-80
2022/05/29 05:24:44;;;;;;;0.52;0.52;;;;;;;17.44;100.00;91923.69;5017742;28;20495;-80
2022/05/29 05:27:12;;;;;;;1.80;0.57;;;;;;;17.64;100.00;91929.78;5017092;28;20230;-79
2022/05/29 05:29:40;;;;;;;0.20;0.20;;;;;;;17.56;100.00;91924.44;5020324;28;20644;-79
2022/05/29 05:32:08;;;;;;;0.20;0.20;;;;;;;17.71;100.00;91933.47;5016287;28;20269;-77
2022/05/29 05:34:40;;;;;;;1.98;0.70;;;;;;;17.43;100.00;91876.09;5018369;28;20618;-79
2022/05/29 05:37:07;;;;;;;0.20;0.20;;;;;;;17.46;100.00;91878.41;5022636;28;20391;-77
2022/05/29 05:39:35;;;;;;;1.00;1.00;;;;;;;17.81;100.00;91922.38;5016006;28;20205;-77
2022/05/29 05:42:02;;;;;;;0.10;0.10;;;;;;;17.73;100.00;91899.19;5017748;28;20559;-77
2022/05/29 05:44:30;;;;;;;0.30;0.30;;;;;;;17.75;100.00;91879.44;5016350;28;20716;-80
2022/05/29 05:46:58;;;;;;;0.32;0.32;;;;;;;17.77;100.00;91899.75;5017140;28;20233;-79
2022/05/29 05:49:25;;;;;;;1.02;1.00;;;;;;;17.87;100.00;91920.25;5018366;28;20201;-78
2022/05/29 05:51:54;;;;;;;5.93;5.25;;;;;;;17.79;100.00;91924.25;5016356;28;20575;-78
2022/05/29 05:54:21;;;;;;;5.93;5.53;;;;;;;17.81;100.00;91929.22;5017097;28;20470;-79
2022/05/29 05:56:51;;;;;;;6.65;5.43;;;;;;;17.95;100.00;91923.81;5014964;28;20562;-80
2022/05/29 05:59:19;;;;;;;5.93;4.97;;;;;;;17.74;100.00;91903.38;5023430;28;20578;-81
2022/05/29 06:01:49;;;;;;;5.35;4.85;;;;;;;17.64;100.00;91894.81;5028926;28;20543;-82
2022/05/29 06:04:16;;;;;;;6.10;5.60;;;;;;;17.39;100.00;91862.78;5027417;28;20560;-82
2022/05/29 06:06:43;;;;;;;7.72;7.00;;;;;;;17.66;100.00;91892.97;5027189;28;20659;-81
2022/05/29 06:09:10;;;;;;;5.18;4.78;;;;;;;18.07;100.00;91922.81;5028732;28;20658;-82
2022/05/29 06:11:39;;;;;;;5.63;4.88;;;;;;;17.95;100.00;91885.47;5028980;28;20205;-80
2022/05/29 06:14:07;;;;;;;5.15;4.75;;;;;;;18.11;100.00;91946.34;5028507;28;20216;-80
2022/05/29 06:16:35;;;;;;;3.97;3.67;;;;;;;17.90;100.00;91909.78;5026644;28;20193;-80
2022/05/29 06:19:05;;;;;;;4.40;4.10;;;;;;;18.00;100.00;91902.97;5024369;28;20577;-81
2022/05/29 06:21:32;;;;;;;5.03;4.60;;;;;;;18.27;100.00;91922.88;5025444;28;20270;-80
2022/05/29 06:23:59;;;;;;;9.05;8.32;;;;;;;18.43;100.00;91916.38;5025100;28;20550;-81
2022/05/29 06:26:29;;;;;;;5.07;4.55;;;;;;;18.64;100.00;91913.81;5026256;28;20585;-83
2022/05/29 06:28:56;;;;;;;5.20;4.45;;;;;;;18.80;100.00;91916.69;5028403;28;20579;-81
2022/05/29 06:31:23;;;;;;;5.35;5.00;;;;;;;18.96;100.00;91926.41;5027530;28;20491;-81
2022/05/29 06:33:50;;;;;;;5.05;4.75;;;;;;;18.90;100.00;91909.81;5026280;28;20294;-81
2022/05/29 06:36:23;;;;;;;4.88;4.43;;;;;;;19.02;100.00;91895.16;5017536;28;20575;-79
2022/05/29 06:38:51;;;;;;;6.30;5.80;;;;;;;18.85;100.00;91845.44;5023955;28;20651;-79
2022/05/29 06:41:21;;;;;;;9.43;8.50;;;;;;;19.11;100.00;91865.38;5019114;28;20575;-79
2022/05/29 06:43:50;;;;;;;4.68;4.38;;;;;;;19.31;100.00;91892.63;5017866;28;20637;-78
2022/05/29 06:46:17;;;;;;;4.20;3.65;;;;;;;19.17;100.00;91880.22;5018064;28;20594;-80
2022/05/29 06:48:45;;;;;;;3.92;3.58;;;;;;;18.82;100.00;91871.28;5016713;28;20556;-79
2022/05/29 06:51:14;;;;;;;4.53;4.22;;;;;;;18.84;100.00;91876.25;5016217;28;20575;-80
2022/05/29 06:53:43;;;;;;;15.90;5.07;;;;;;;18.41;100.00;91868.84;5017435;28;20582;-79
2022/05/29 06:56:11;;;;;;;4.82;4.53;;;;;;;18.51;100.00;91849.22;5015262;28;20548;-79
2022/05/29 06:58:39;;;;;;;4.72;4.43;;;;;;;18.62;100.00;91867.06;5015921;28;20483;-81
2022/05/29 07:09:24;;;;;;;7.22;5.97;;;;;;;19.02;100.00;91869.56;5021223;28;20252;-79
2022/05/29 07:11:56;;;;;;;5.05;4.85;;;;;;;19.02;99.33;91857.56;5020328;28;20606;-79
2022/05/29 07:14:23;;;;;;;5.95;5.65;;;;;;;19.17;98.47;91883.59;5018577;28;20275;-79
2022/05/29 07:16:50;;;;;;;5.43;5.05;;;;;;;19.32;99.77;91877.09;5022297;28;20569;-81
2022/05/29 07:19:20;;;;;;;4.90;4.30;;;;;;;19.23;100.00;91869.44;5026309;28;20528;-81
2022/05/29 07:21:48;;;;;;;5.18;4.55;;;;;;;18.74;100.00;91798.66;5028268;28;20688;-81
2022/05/29 07:24:15;;;;;;;6.78;6.13;;;;;;;18.99;100.00;91814.31;5023621;28;20202;-82
2022/05/29 07:26:45;;;;;;;8.38;6.50;;;;;;;19.29;100.00;91874.84;5022235;28;20616;-84
2022/05/29 07:29:17;;;;;;;5.82;5.32;;;;;;;19.21;100.00;91869.56;5020867;28;20198;-82
2022/05/29 07:31:45;;;;;;;6.00;5.32;;;;;;;19.40;100.00;91881.56;5021009;28;20267;-80
2022/05/29 07:34:12;;;;;;;6.07;5.18;;;;;;;19.26;100.00;91879.44;5025231;28;20549;-80
2022/05/29 07:36:39;;;;;;;5.45;5.15;;;;;;;19.20;100.00;91849.22;5018473;28;20566;-81
2022/05/29 07:45:14;;;;;;;7.40;6.90;;;;;;;19.86;100.00;91861.19;5027913;28;20591;-77
2022/05/29 07:47:44;;;;;;;6.03;5.63;;;;;;;20.00;99.42;91861.72;5023142;28;20271;-78
2022/05/29 07:50:14;;;;;;;5.95;5.53;;;;;;;20.02;98.97;91850.34;5020676;28;20533;-78
2022/05/29 07:52:41;;;;;;;4.25;3.95;;;;;;;20.25;99.70;91858.50;5029304;28;20642;-82
2022/05/29 07:55:09;;;;;;;4.20;3.90;;;;;;;20.29;99.40;91857.28;5028485;28;20568;-79
2022/05/29 07:57:38;;;;;;;4.10;3.80;;;;;;;20.39;99.72;91831.63;5027180;28;20546;-78
2022/05/29 08:00:08;;;;;;;4.47;3.70;;;;;;;20.33;100.00;91822.75;5031307;28;20517;-79
2022/05/29 08:02:35;;;;;;;4.18;3.92;;;;;;;20.24;95.32;91867.16;5030040;28;20578;-81
2022/05/29 08:05:03;;;;;;;3.60;3.40;;;;;;;20.06;95.57;91861.13;5027437;28;20583;-79
2022/05/29 08:07:31;;;;;;;4.38;4.00;;;;;;;20.23;96.33;91858.66;5027199;28;20547;-81
2022/05/29 08:09:58;;;;;;;3.65;3.00;;;;;;;20.38;97.44;91846.22;5025848;28;20609;-81
2022/05/29 08:12:26;;;;;;;4.20;3.80;;;;;;;20.29;94.36;91868.34;5024389;28;20560;-77
2022/05/29 08:14:54;;;;;;;4.50;3.70;;;;;;;20.36;91.28;91860.94;5029505;28;20205;-80
2022/05/29 08:17:22;;;;;;;3.45;3.25;;;;;;;20.45;92.51;91846.47;5030597;28;20573;-80
2022/05/29 08:19:49;;;;;;;4.55;4.15;;;;;;;20.57;95.19;91846.09;5021442;28;20206;-82
2022/05/29 08:22:16;;;;;;;4.43;4.03;;;;;;;20.64;95.40;91829.19;5023416;28;20555;-82
2022/05/29 08:33:01;;;;;;;2.45;2.33;;;;;;;20.97;89.17;91845.75;5028545;28;20705;-85
2022/05/29 08:35:28;;;;;;;2.40;1.98;;;;;;;20.86;88.14;91820.28;5023270;28;20281;-79
2022/05/29 08:37:56;;;;;;;3.35;2.88;;;;;;;21.03;86.34;91846.91;5015193;28;20459;-81
2022/05/29 08:40:24;;;;;;;2.88;2.75;;;;;;;21.09;89.09;91838.63;5018827;28;20470;-82
2022/05/29 08:42:51;;;;;;;4.85;2.50;;;;;;;21.30;91.54;91817.81;5028987;28;20569;-84
2022/05/29 08:45:20;;;;;;;2.92;2.72;;;;;;;21.67;93.09;91815.88;5029729;28;20266;-83
2022/05/29 08:47:48;;;;;;;3.45;3.15;;;;;;;21.69;91.52;91795.16;5018366;28;20264;-85
2022/05/29 08:50:21;;;;;;;5.50;3.20;;;;;;;21.64;92.26;91790.44;5030541;28;20205;-82
2022/05/29 08:53:03;;;;;;;5.82;3.38;;;;;;;21.87;91.79;91816.47;5021064;28;20566;-82
2022/05/29 08:55:36;;;;;;;4.63;4.20;;;;;;;22.06;92.33;91810.34;5027562;28;20278;-83
2022/05/29 08:58:24;;;;;;;4.22;3.92;;;;;;;21.74;93.87;91750.03;5012964;28;20880;-80
2022/05/29 09:01:09;;;;;;;3.35;3.03;;;;;;;22.15;86.97;91828.25;5015418;28;20663;-82
2022/05/29 09:03:53;;;;;;;2.70;2.50;;;;;;;22.27;86.50;91823.63;5015885;28;20559;-82
2022/05/29 09:06:26;;;;;;;3.15;3.05;;;;;;;21.84;87.25;91771.31;5033473;28;20617;-81
2022/05/29 09:09:00;;;;;;;3.20;3.00;;;;;;;22.23;88.42;91797.41;5031827;28;20520;-81
2022/05/29 09:11:32;;;;;;;4.03;3.83;;;;;;;22.16;87.87;91759.59;5034361;28;20524;-82
2022/05/29 09:14:10;;;;;;;3.05;2.85;;;;;;;22.35;86.92;91799.72;5028571;28;20198;-82
2022/05/29 09:16:44;;;;;;;6.05;3.28;;;;;;;22.21;88.02;91780.50;5022267;28;20491;-81
2022/05/29 09:19:32;;;;;;;5.70;3.30;;;;;;;22.08;88.98;91741.56;5021966;28;20198;-83
2022/05/29 09:22:03;;;;;;;4.15;3.85;;;;;;;22.42;89.52;91791.19;5022305;28;20658;-84
2022/05/29 09:24:51;;;;;;;7.13;4.45;;;;;;;22.28;88.27;91736.00;5019773;28;20559;-81
2022/05/29 09:27:19;;;;;;;3.95;3.42;;;;;;;22.62;88.47;91782.28;5026741;28;20597;-81
2022/05/29 09:29:46;;;;;;;3.25;2.95;;;;;;;22.64;86.29;91782.94;5036027;28;20601;-80
2022/05/29 09:32:20;;;;;;;3.58;3.28;;;;;;;23.01;84.11;91803.16;5031362;28;20521;-82
2022/05/29 09:34:58;;;;;;;3.67;2.78;;;;;;;23.28;84.55;91790.94;5024246;28;20652;-82
2022/05/29 09:37:35;;;;;;;3.10;2.92;;;;;;;23.34;83.83;91793.69;5021896;28;20574;-82
2022/05/29 09:40:05;;;;;;;3.03;2.83;;;;;;;22.64;83.17;91707.47;5020994;28;20601;-81
2022/05/29 09:42:38;;;;;;;2.95;2.85;;;;;;;23.07;86.24;91708.97;5020254;28;20198;-81
2022/05/29 09:45:15;;;;;;;2.58;2.45;;;;;;;23.39;88.75;91744.22;5021602;28;20214;-80
2022/05/29 09:50:46;;;;;;;2.70;2.45;;;;;;;23.36;88.74;91727.31;5027415;28;20715;-82
2022/05/29 09:53:17;;;;;;;2.63;2.42;;;;;;;23.51;89.10;91720.56;5033684;28;20582;-78
2022/05/29 09:55:54;;;;;;;3.65;3.33;;;;;;;23.65;88.93;91734.56;5032691;28;20189;-81
2022/05/29 09:58:27;;;;;;;5.10;3.15;;;;;;;23.50;89.46;91718.13;5013307;28;20554;-79
2022/05/29 10:00:57;;;;;;;4.60;3.80;;;;;;;23.71;90.83;91720.22;5015488;28;20194;-78
2022/05/29 10:03:43;;;;;;;5.75;3.20;;;;;;;23.69;89.39;91692.00;5015436;28;20248;-80
2022/05/29 10:06:18;;;;;;;3.50;3.30;;;;;;;23.66;88.43;91694.91;5014710;28;20575;-82
2022/05/29 10:08:46;;;;;;;3.90;3.15;;;;;;;23.94;90.19;91711.59;5014670;28;20679;-83
2022/05/29 10:11:21;;;;;;;4.05;3.10;;;;;;;23.96;89.50;91707.06;5029263;28;20210;-81
2022/05/29 10:13:50;;;;;;;3.20;3.00;;;;;;;23.98;90.19;91683.69;5033812;28;20569;-81
2022/05/29 10:16:32;;;;;;;7.25;2.67;;;;;;;24.26;89.39;91690.06;5033048;28;20527;-80
2022/05/29 10:19:02;;;;;;;4.05;3.85;;;;;;;24.28;87.92;91697.63;5025312;28;20547;-77
2022/05/29 10:21:31;;;;;;;4.53;4.28;;;;;;;24.22;87.74;91655.22;5032525;28;20586;-81
2022/05/29 10:24:14;;;;;;;3.70;3.50;;;;;;;24.72;84.98;91683.19;5033607;28;20606;-78
2022/05/29 10:26:48;;;;;;;5.47;5.00;;;;;;;25.90;81.15;91714.56;5032594;28;20487;-80
2022/05/29 10:29:19;;;;;;;4.75;4.45;;;;;;;27.15;77.40;91706.50;5033427;28;20472;-79
2022/05/29 10:31:50;;;;;;;3.88;3.58;;;;;;;27.23;72.79;91675.25;5025376;28;20510;-80
2022/05/29 10:34:24;;;;;;;6.18;3.90;;;;;;;28.26;72.26;91715.34;5032152;28;20530;-84
2022/05/29 10:36:52;;;;;;;3.05;2.95;;;;;;;28.30;69.79;91693.97;5030240;28;20558;-86
2022/05/29 10:39:21;;;;;;;3.63;3.47;;;;;;;27.80;71.09;91699.44;5032160;28;20516;-85
2022/05/29 10:41:50;;;;;;;6.38;4.07;;;;;;;26.92;71.52;91648.06;5020488;28;20477;-84
2022/05/29 10:44:40;;;;;;;6.88;6.38;;;;;;;27.48;71.57;91660.09;5030526;28;20582;-85
2022/05/29 10:47:16;;;;;;;4.65;4.45;;;;;;;27.38;71.02;91676.97;5033283;28;20557;-81
2022/05/29 10:49:56;;;;;;;3.58;3.33;;;;;;;27.36;71.20;91660.78;5023157;28;20483;-82
2022/05/29 10:52:50;;;;;;;4.95;4.75;;;;;;;27.16;70.19;91664.00;5021786;28;20618;-80
2022/05/29 10:55:30;;;;;;;4.28;4.07;;;;;;;27.20;69.53;91667.84;5023158;28;20590;-83
2022/05/29 10:58:16;;;;;;;6.53;6.07;;;;;;;26.99;72.57;91662.66;5020749;28;20491;-80
2022/05/29 11:00:59;;;;;;;5.30;5.10;;;;;;;26.29;77.83;91619.28;5021437;28;20560;-81
2022/05/29 11:03:56;;;;;;;6.00;5.47;;;;;;;26.15;79.41;91614.91;5028279;28;20545;-80
2022/05/29 11:06:52;;;;;;;6.20;5.78;;;;;;;26.06;79.67;91631.53;5024573;28;20466;-82
2022/05/29 11:09:50;;;;;;;5.25;4.75;;;;;;;25.62;79.55;91607.47;5021039;28;20709;-82
2022/05/29 11:12:29;;;;;;;5.97;5.60;;;;;;;25.66;79.92;91624.25;5028990;28;20673;-80
2022/05/29 11:15:10;;;;;;;6.32;5.75;;;;;;;25.63;79.57;91624.59;5027968;28;20544;-85
2022/05/29 11:17:51;;;;;;;8.05;7.57;;;;;;;24.95;78.78;91551.41;5032501;28;20466;-78
2022/05/29 11:20:56;;;;;;;6.45;6.03;;;;;;;25.24;80.92;91579.06;5030135;28;20239;-85
2022/05/29 11:23:40;;;;;;;8.65;8.05;;;;;;;25.26;81.79;91581.47;5004271;28;20298;-83
2022/05/29 11:26:18;;;;;;;6.80;6.40;;;;;;;25.03;82.24;91509.97;5027371;28;20489;-86
2022/05/29 11:29:01;;;;;;;7.35;6.65;;;;;;;24.88;79.82;91516.06;5025408;28;20498;-83
2022/05/29 11:31:48;;;;;;;9.32;7.40;;;;;;;24.89;80.17;91556.47;5027407;28;20532;-81
2022/05/29 11:34:36;;;;;;;12.55;11.52;;;;;;;24.64;82.09;91569.56;5032115;28;20574;-83
2022/05/29 11:37:32;;;;;;;9.40;8.70;;;;;;;24.28;81.08;91514.34;5031064;28;20450;-83
2022/05/29 11:40:16;;;;;;;9.65;8.93;;;;;;;24.94;83.58;91562.72;5027206;28;20581;-82
2022/05/29 11:42:52;;;;;;;9.07;8.35;;;;;;;25.17;82.07;91575.59;5025625;28;20555;-82
2022/05/29 11:45:24;;;;;;;9.07;8.32;;;;;;;24.93;82.21;91504.25;5030110;28;20589;-80
2022/05/29 11:51:11;;;;;;;8.80;8.20;;;;;;;25.40;81.93;91544.47;5028361;28;20584;-84
2022/05/29 11:53:43;;;;;;;8.55;8.05;;;;;;;24.56;80.34;91474.06;5025468;28;20466;-80
2022/05/29 11:56:18;;;;;;;10.30;9.40;;;;;;;24.55;82.67;91462.16;5025183;28;20635;-88
2022/05/29 11:58:49;;;;;;;10.00;9.18;;;;;;;24.49;83.81;91449.94;5027945;28;20493;-82
2022/05/29 12:01:24;;;;;;;8.88;8.02;;;;;;;24.81;84.65;91528.88;5023306;28;20557;-82
2022/05/29 12:03:56;;;;;;;10.75;9.95;;;;;;;24.91;83.70;91551.91;5023746;28;20497;-82
2022/05/29 12:06:30;;;;;;;7.50;7.00;;;;;;;24.92;82.66;91543.19;5030368;28;20557;-81
2022/05/29 12:09:02;;;;;;;7.18;6.57;;;;;;;25.04;82.49;91541.78;5033088;28;20640;-86
2022/05/29 12:11:41;;;;;;;9.68;7.03;;;;;;;25.05;81.42;91497.69;5031440;28;20197;-82
2022/05/29 12:14:16;;;;;;;8.02;7.43;;;;;;;25.37;82.34;91517.19;5031642;28;20454;-83
2022/05/29 12:16:47;;;;;;;8.30;7.85;;;;;;;25.15;84.64;91487.06;5033862;28;20498;-86
2022/05/29 12:19:19;;;;;;;7.43;6.93;;;;;;;24.95;77.83;91507.47;5031517;28;20641;-84
2022/05/29 12:21:53;;;;;;;6.28;5.90;;;;;;;25.02;78.43;91484.28;5032222;28;20220;-83
2022/05/29 12:24:24;;;;;;;6.10;5.65;;;;;;;24.96;74.25;91480.63;5029412;28;20494;-80
2022/05/29 12:27:00;;;;;;;5.88;5.38;;;;;;;24.78;74.73;91457.72;5025246;28;20614;-82
2022/05/29 12:29:31;;;;;;;4.97;4.78;;;;;;;24.73;69.27;91482.47;5016854;28;20666;-80
2022/05/29 12:32:03;;;;;;;6.15;5.57;;;;;;;25.38;67.37;91549.81;5014619;28;20557;-80
2022/05/29 12:34:35;;;;;;;5.43;5.13;;;;;;;25.23;67.47;91502.50;5015515;28;20567;-81
2022/05/29 12:37:27;;;;;;;5.63;4.93;;;;;;;25.61;68.68;91528.25;5028419;28;20667;-82
2022/05/29 12:40:17;;;;;;;6.07;5.50;;;;;;;25.87;71.80;91536.31;5034587;28;20570;-83
2022/05/29 12:43:19;;;;;;;5.57;5.18;;;;;;;25.83;70.50;91530.72;5031875;28;20605;-82
2022/05/29 12:46:02;;;;;;;5.75;5.38;;;;;;;26.28;70.81;91516.69;5032070;28;20258;-79
2022/05/29 12:49:04;;;;;;;5.38;5.07;;;;;;;26.77;69.13;91514.09;5035579;28;20221;-80
2022/05/29 12:52:02;;;;;;;5.78;5.28;;;;;;;26.99;65.27;91527.03;5021188;28;20528;-79
2022/05/29 12:55:17;;;;;;;5.22;4.78;;;;;;;27.04;68.03;91509.16;5032103;28;20284;-76
2022/05/29 12:58:19;;;;;;;5.07;4.68;;;;;;;26.33;61.26;91527.28;4994019;28;20233;-79
2022/05/29 13:01:09;;;;;;;6.47;5.00;;;;;;;25.92;67.87;91467.50;5033661;28;20304;-76
2022/05/29 13:04:07;;;;;;;7.07;6.43;;;;;;;25.86;70.58;91490.72;5034945;28;20646;-76
2022/05/29 13:06:53;;;;;;;5.03;4.72;;;;;;;25.46;65.70;91510.91;5001548;28;20201;-79
2022/05/29 13:09:51;;;;;;;6.20;5.70;;;;;;;24.77;65.43;91427.69;5035339;28;20264;-81
2022/05/29 13:12:22;;;;;;;4.70;4.45;;;;;;;24.94;64.24;91503.28;5036023;28;20537;-78
2022/05/29 13:14:52;;;;;;;9.20;7.07;;;;;;;24.80;68.72;91462.69;5020865;28;20556;-78
2022/05/29 13:17:28;;;;;;;6.82;6.32;;;;;;;24.79;70.69;91450.75;5016405;28;20597;-78
2022/05/29 13:20:09;;;;;;;5.40;5.00;;;;;;;24.76;71.09;91449.34;5016341;28;20546;-78
2022/05/29 13:23:02;;;;;;;5.50;5.10;;;;;;;24.55;69.30;91425.19;5015538;28;20586;-78
2022/05/29 13:25:32;;;;;;;8.25;5.03;;;;;;;24.51;71.47;91440.22;5020044;28;20464;-81
2022/05/29 13:28:01;;;;;;;5.03;4.70;;;;;;;24.43;65.32;91453.22;5016805;28;20279;-81
2022/05/29 13:31:11;;;;;;;5.50;4.57;;;;;;;24.40;66.95;91447.59;5017612;28;20556;-77
2022/05/29 13:33:59;;;;;;;5.38;5.03;;;;;;;24.23;71.61;91421.91;5015297;28;20209;-79
2022/05/29 13:37:06;;;;;;;5.03;3.83;;;;;;;24.33;58.41;91501.72;5017194;28;20697;-78
2022/05/29 13:39:56;;;;;;;3.45;2.70;;;;;;;24.38;49.43;91532.97;5015297;28;20251;-81
2022/05/29 13:42:26;;;;;;;4.28;2.50;;;;;;;24.52;49.90;91511.56;5015735;28;20216;-79
2022/05/29 13:44:53;;;;;;;7.70;4.10;;;;;;;24.61;47.68;91526.00;5023649;28;20590;-79
2022/05/29 13:47:48;;;;;;;5.50;5.20;;;;;;;24.94;52.35;91481.81;5022791;28;20253;-79
2022/05/29 13:50:30;;;;;;;2.75;2.58;;;;;;;24.90;48.86;91507.19;4988252;28;20621;-76
2022/05/29 13:53:02;;;;;;;4.00;2.20;;;;;;;25.08;43.87;91519.75;5017286;28;20638;-78
2022/05/29 13:55:49;;;;;;;4.28;2.78;;;;;;;25.02;48.54;91472.16;5021035;28;20578;-79
2022/05/29 14:04:17;;;;;;;4.70;3.40;;;;;;;24.75;47.30;91434.81;4975814;28;20450;-82
2022/05/29 14:07:08;;;;;;;2.47;2.25;;;;;;;25.10;47.80;91472.09;5015720;28;20570;-80
2022/05/29 14:09:39;;;;;;;4.15;3.22;;;;;;;24.71;49.83;91406.94;5015277;28;20466;-81
2022/05/29 14:12:14;;;;;;;3.40;2.38;;;;;;;24.88;47.67;91483.31;5015784;28;20482;-78
2022/05/29 14:14:50;;;;;;;3.00;2.80;;;;;;;24.84;43.81;91513.06;5015805;28;20605;-81
